Time,TemperatureF,DewpointF,PressureIn,WindDirection,WindDirectionDegrees,WindSpeedMPH,WindSpeedGustMPH,Humidity,HourlyPrecipIn,Conditions,Clouds,dailyrainin,SoftwareType,DateUTC
2013-01-13 00:16:00,56.7,56.0,30.07,ESE,106,0.0,1.0,96,0.00,,,0.00,weatherlink.com 1.10,2013-01-13 05:16:00,
2013-01-13 00:31:00,56.4,55.0,30.07,South,171,0.0,2.0,96,0.00,,,0.00,weatherlink.com 1.10,2013-01-13 05:31:00,
2013-01-13 00:46:00,56.2,55.0,30.07,ESE,122,0.0,2.0,97,0.00,,,0.00,weatherlink.com 1.10,2013-01-13 05:46:00,
2013-01-13 01:01:00,56.2,55.0,30.07,ESE,120,1.0,1.0,97,0.00,,,0.00,weatherlink.com 1.10,2013-01-13 06:01:00,
2013-01-13 01:16:00,56.0,55.0,30.07,SE,130,0.0,2.0,97,0.00,,,0.00,weatherlink.com 1.10,2013-01-13 06:16:00,
2013-01-13 01:31:00,55.8,55.0,30.07,ESE,119,0.0,1.0,97,0.00,,,0.00,weatherlink.com 1.10,2013-01-13 06:31:00,
2013-01-13 01:46:00,55.6,55.0,30.07,SW,221,0.0,1.0,97,0.00,,,0.00,weatherlink.com 1.10,2013-01-13 06:46:00,
2013-01-13 02:01:00,55.3,55.0,30.07,SE,130,0.0,1.0,97,0.00,,,0.00,weatherlink.com 1.10,2013-01-13 07:01:00,
2013-01-13 02:16:00,55.0,54.0,30.07,SE,130,0.0,1.0,97,0.00,,,0.00,weatherlink.com 1.10,2013-01-13 07:16:00,
2013-01-13 02:31:00,55.1,54.0,30.06,SSE,154,0.0,1.0,97,0.00,,,0.00,weatherlink.com 1.10,2013-01-13 07:31:00,
2013-01-13 02:46:00,55.1,54.0,30.06,SE,128,0.0,2.0,97,0.00,,,0.00,weatherlink.com 1.10,2013-01-13 07:46:00,
2013-01-13 03:01:00,55.0,55.0,30.06,ESE,121,0.0,1.0,98,0.00,,,0.00,weatherlink.com 1.10,2013-01-13 08:01:00,
2013-01-13 03:16:00,54.9,54.0,30.06,ESE,115,0.0,2.0,98,0.00,,,0.00,weatherlink.com 1.10,2013-01-13 08:16:00,
2013-01-13 03:31:00,54.6,54.0,30.05,ESE,117,0.0,2.0,98,0.00,,,0.00,weatherlink.com 1.10,2013-01-13 08:31:00,
2013-01-13 03:47:00,54.3,54.0,30.04,SE,136,0.0,2.0,97,0.00,,,0.00,weatherlink.com 1.10,2013-01-13 08:47:00,
2013-01-13 04:02:00,53.9,53.0,30.04,ESE,119,1.0,2.0,97,0.00,,,0.00,weatherlink.com 1.10,2013-01-13 09:02:00,
2013-01-13 04:17:00,53.4,53.0,30.04,ESE,119,0.0,1.0,98,0.00,,,0.00,weatherlink.com 1.10,2013-01-13 09:17:00,
2013-01-13 04:32:00,53.4,53.0,30.04,ESE,107,0.0,0.0,98,0.00,,,0.00,weatherlink.com 1.10,2013-01-13 09:32:00,
2013-01-13 04:47:00,53.3,53.0,30.03,ESE,107,0.0,0.0,98,0.00,,,0.00,weatherlink.com 1.10,2013-01-13 09:47:00,
2013-01-13 05:02:00,54.2,54.0,30.03,ESE,107,0.0,1.0,98,0.00,,,0.00,weatherlink.com 1.10,2013-01-13 10:02:00,
2013-01-13 05:17:00,54.9,54.0,30.03,ESE,114,0.0,1.0,98,0.00,,,0.00,weatherlink.com 1.10,2013-01-13 10:17:00,
2013-01-13 05:32:00,54.8,54.0,30.03,ESE,114,0.0,0.0,98,0.00,,,0.00,weatherlink.com 1.10,2013-01-13 10:32:00,
2013-01-13 05:47:00,54.7,54.0,30.04,ESE,114,0.0,0.0,98,0.00,,,0.00,weatherlink.com 1.10,2013-01-13 10:47:00,
2013-01-13 06:02:00,54.5,54.0,30.04,ESE,114,0.0,0.0,98,0.00,,,0.00,weatherlink.com 1.10,2013-01-13 11:02:00,
2013-01-13 06:17:00,54.2,54.0,30.04,ESE,111,2.0,3.0,98,0.00,,,0.00,weatherlink.com 1.10,2013-01-13 11:17:00,
2013-01-13 06:32:00,54.0,54.0,30.05,ESE,119,1.0,2.0,98,0.00,,,0.00,weatherlink.com 1.10,2013-01-13 11:32:00,
2013-01-13 06:47:00,53.8,53.0,30.05,ESE,115,0.0,1.0,98,0.00,,,0.00,weatherlink.com 1.10,2013-01-13 11:47:00,
2013-01-13 07:02:00,53.7,53.0,30.05,ESE,115,0.0,2.0,98,0.00,,,0.00,weatherlink.com 1.10,2013-01-13 12:02:00,
2013-01-13 07:17:00,53.6,53.0,30.05,ESE,111,0.0,1.0,98,0.00,,,0.00,weatherlink.com 1.10,2013-01-13 12:17:00,
2013-01-13 07:32:00,53.8,53.0,30.05,ESE,109,0.0,1.0,98,0.00,,,0.00,weatherlink.com 1.10,2013-01-13 12:32:00,
2013-01-13 07:47:00,54.0,54.0,30.05,ESE,110,1.0,1.0,98,0.00,,,0.00,weatherlink.com 1.10,2013-01-13 12:47:00,
2013-01-13 08:02:00,54.0,54.0,30.05,ESE,115,0.0,1.0,98,0.00,,,0.00,weatherlink.com 1.10,2013-01-13 13:02:00,
2013-01-13 08:17:00,54.1,54.0,30.06,ESE,117,0.0,1.0,98,0.00,,,0.00,weatherlink.com 1.10,2013-01-13 13:17:00,
2013-01-13 08:32:00,54.4,54.0,30.07,ESE,115,0.0,0.0,98,0.00,,,0.00,weatherlink.com 1.10,2013-01-13 13:32:00,
2013-01-13 08:47:00,55.2,55.0,30.07,West,265,0.0,1.0,98,0.00,,,0.00,weatherlink.com 1.10,2013-01-13 13:47:00,
2013-01-13 09:02:00,55.6,55.0,30.08,SSW,212,0.0,0.0,99,0.00,,,0.00,weatherlink.com 1.10,2013-01-13 14:02:00,
2013-01-13 09:17:00,56.2,56.0,30.09,SW,228,0.0,1.0,99,0.00,,,0.00,weatherlink.com 1.10,2013-01-13 14:17:00,
2013-01-13 09:32:00,56.6,56.0,30.09,SW,217,0.0,2.0,99,0.00,,,0.00,weatherlink.com 1.10,2013-01-13 14:32:00,
2013-01-13 09:47:00,57.2,57.0,30.09,WSW,244,3.0,3.0,99,0.00,,,0.00,weatherlink.com 1.10,2013-01-13 14:47:00,
2013-01-13 10:02:00,57.6,57.0,30.09,SW,236,0.0,6.0,99,0.00,,,0.00,weatherlink.com 1.10,2013-01-13 15:02:00,
2013-01-13 10:17:00,58.5,58.0,30.08,NW,321,1.0,7.0,98,0.00,,,0.00,weatherlink.com 1.10,2013-01-13 15:17:00,
2013-01-13 10:32:00,59.4,58.0,30.08,NW,309,2.0,6.0,95,0.00,,,0.00,weatherlink.com 1.10,2013-01-13 15:32:00,
2013-01-13 10:47:00,60.1,58.0,30.08,SW,220,3.0,7.0,93,0.00,,,0.00,weatherlink.com 1.10,2013-01-13 15:47:00,
2013-01-13 11:02:00,61.0,59.0,30.07,WNW,298,4.0,4.0,92,0.00,,,0.00,weatherlink.com 1.10,2013-01-13 16:02:00,
2013-01-13 11:17:00,62.1,59.0,30.06,West,267,4.0,5.0,90,0.00,,,0.00,weatherlink.com 1.10,2013-01-13 16:17:00,
2013-01-13 11:32:00,62.9,59.0,30.06,WNW,296,4.0,6.0,87,0.00,,,0.00,weatherlink.com 1.10,2013-01-13 16:32:00,
2013-01-13 11:47:00,63.8,59.0,30.05,West,269,4.0,6.0,85,0.00,,,0.00,weatherlink.com 1.10,2013-01-13 16:47:00,
2013-01-13 12:02:00,65.2,60.0,30.04,WSW,241,4.0,6.0,82,0.00,,,0.00,weatherlink.com 1.10,2013-01-13 17:02:00,
2013-01-13 12:17:00,65.8,60.0,30.03,SSW,200,7.0,9.0,81,0.00,,,0.00,weatherlink.com 1.10,2013-01-13 17:17:00,
2013-01-13 12:32:00,66.7,60.0,30.02,West,266,6.0,7.0,79,0.00,,,0.00,weatherlink.com 1.10,2013-01-13 17:32:00,
2013-01-13 12:47:00,66.9,60.0,30.02,SW,219,3.0,7.0,78,0.00,,,0.00,weatherlink.com 1.10,2013-01-13 17:47:00,
2013-01-13 13:03:00,68.5,61.0,30.02,WSW,240,2.0,7.0,76,0.00,,,0.00,weatherlink.com 1.10,2013-01-13 18:03:00,
2013-01-13 13:18:00,68.5,60.0,30.01,South,179,1.0,9.0,75,0.00,,,0.00,weatherlink.com 1.10,2013-01-13 18:18:00,
2013-01-13 13:33:00,69.4,60.0,30.00,SW,236,4.0,7.0,73,0.00,,,0.00,weatherlink.com 1.10,2013-01-13 18:33:00,
2013-01-13 13:48:00,69.4,60.0,30.00,SSW,194,1.0,8.0,72,0.00,,,0.00,weatherlink.com 1.10,2013-01-13 18:48:00,
2013-01-13 14:03:00,69.5,59.0,29.99,West,263,1.0,8.0,70,0.00,,,0.00,weatherlink.com 1.10,2013-01-13 19:03:00,
2013-01-13 14:18:00,69.9,59.0,29.99,South,189,3.0,8.0,69,0.00,,,0.00,weatherlink.com 1.10,2013-01-13 19:18:00,
2013-01-13 14:33:00,69.9,59.0,30.00,SSW,210,5.0,10.0,69,0.00,,,0.00,weatherlink.com 1.10,2013-01-13 19:33:00,
2013-01-13 14:48:00,70.1,59.0,30.00,SW,223,4.0,12.0,69,0.00,,,0.00,weatherlink.com 1.10,2013-01-13 19:48:00,
2013-01-13 15:03:00,69.8,59.0,30.00,SW,232,5.0,8.0,69,0.00,,,0.00,weatherlink.com 1.10,2013-01-13 20:03:00,
2013-01-13 15:18:00,69.7,59.0,30.00,WSW,258,5.0,11.0,69,0.00,,,0.00,weatherlink.com 1.10,2013-01-13 20:18:00,
2013-01-13 15:33:00,69.6,59.0,30.00,SSW,202,3.0,11.0,69,0.00,,,0.00,weatherlink.com 1.10,2013-01-13 20:33:00,
2013-01-13 15:48:00,69.3,59.0,30.01,WSW,255,2.0,9.0,70,0.00,,,0.00,weatherlink.com 1.10,2013-01-13 20:48:00,
2013-01-13 16:03:00,69.4,59.0,30.01,WSW,252,1.0,8.0,70,0.00,,,0.00,weatherlink.com 1.10,2013-01-13 21:03:00,
2013-01-13 16:18:00,69.1,59.0,30.02,SW,233,3.0,8.0,70,0.00,,,0.00,weatherlink.com 1.10,2013-01-13 21:18:00,
2013-01-13 16:33:00,68.9,59.0,30.02,WSW,247,3.0,9.0,71,0.00,,,0.00,weatherlink.com 1.10,2013-01-13 21:33:00,
2013-01-13 16:48:00,68.6,59.0,30.02,West,268,2.0,8.0,72,0.00,,,0.00,weatherlink.com 1.10,2013-01-13 21:48:00,
2013-01-13 17:03:00,68.0,59.0,30.01,West,260,3.0,6.0,73,0.00,,,0.00,weatherlink.com 1.10,2013-01-13 22:03:00,
2013-01-13 17:18:00,67.4,59.0,30.01,SSW,193,2.0,3.0,75,0.00,,,0.00,weatherlink.com 1.10,2013-01-13 22:18:00,
2013-01-13 17:33:00,67.0,59.0,30.02,SE,132,2.0,5.0,76,0.00,,,0.00,weatherlink.com 1.10,2013-01-13 22:33:00,
2013-01-13 17:48:00,66.4,59.0,30.02,SSE,165,4.0,6.0,77,0.00,,,0.00,weatherlink.com 1.10,2013-01-13 22:48:00,
2013-01-13 18:03:00,66.2,59.0,30.02,SW,215,2.0,5.0,77,0.00,,,0.00,weatherlink.com 1.10,2013-01-13 23:03:00,
2013-01-13 18:18:00,66.0,59.0,30.02,West,280,1.0,8.0,78,0.00,,,0.00,weatherlink.com 1.10,2013-01-13 23:18:00,
2013-01-13 18:33:00,65.8,59.0,30.02,South,181,5.0,7.0,78,0.00,,,0.00,weatherlink.com 1.10,2013-01-13 23:33:00,
2013-01-13 18:48:00,65.5,59.0,30.02,West,280,2.0,7.0,79,0.00,,,0.00,weatherlink.com 1.10,2013-01-13 23:48:00,
2013-01-13 19:03:00,65.4,59.0,30.01,West,281,0.0,9.0,79,0.00,,,0.00,weatherlink.com 1.10,2013-01-14 00:03:00,
2013-01-13 19:18:00,65.0,59.0,30.02,West,275,2.0,7.0,80,0.00,,,0.00,weatherlink.com 1.10,2013-01-14 00:18:00,
2013-01-13 19:33:00,64.9,59.0,30.01,SE,136,1.0,7.0,81,0.00,,,0.00,weatherlink.com 1.10,2013-01-14 00:33:00,
2013-01-13 19:48:00,64.5,59.0,30.01,WNW,284,3.0,5.0,81,0.00,,,0.00,weatherlink.com 1.10,2013-01-14 00:48:00,
2013-01-13 20:03:00,64.2,59.0,30.01,SW,232,1.0,5.0,82,0.00,,,0.00,weatherlink.com 1.10,2013-01-14 01:03:00,
2013-01-13 20:18:00,64.2,59.0,30.01,SSW,206,1.0,5.0,82,0.00,,,0.00,weatherlink.com 1.10,2013-01-14 01:18:00,
2013-01-13 20:33:00,64.2,59.0,30.01,West,261,0.0,5.0,83,0.00,,,0.00,weatherlink.com 1.10,2013-01-14 01:33:00,
2013-01-13 20:48:00,64.2,59.0,30.01,SSW,207,2.0,3.0,83,0.00,,,0.00,weatherlink.com 1.10,2013-01-14 01:48:00,
2013-01-13 21:03:00,64.0,59.0,30.01,South,181,2.0,4.0,83,0.00,,,0.00,weatherlink.com 1.10,2013-01-14 02:03:00,
2013-01-13 21:18:00,63.9,59.0,30.01,South,186,3.0,3.0,83,0.00,,,0.00,weatherlink.com 1.10,2013-01-14 02:18:00,
2013-01-13 21:33:00,63.6,59.0,30.01,SW,228,0.0,1.0,84,0.00,,,0.00,weatherlink.com 1.10,2013-01-14 02:33:00,
2013-01-13 21:48:00,63.6,59.0,30.01,ESE,106,0.0,3.0,84,0.00,,,0.00,weatherlink.com 1.10,2013-01-14 02:48:00,
2013-01-13 22:03:00,63.1,59.0,30.01,South,190,0.0,1.0,85,0.00,,,0.00,weatherlink.com 1.10,2013-01-14 03:03:00,
2013-01-13 22:18:00,62.9,58.0,30.01,South,170,1.0,4.0,85,0.00,,,0.00,weatherlink.com 1.10,2013-01-14 03:18:00,
2013-01-13 22:33:00,62.9,59.0,30.02,West,273,1.0,1.0,86,0.00,,,0.00,weatherlink.com 1.10,2013-01-14 03:33:00,
2013-01-13 22:48:00,62.7,59.0,30.02,SSW,205,3.0,5.0,86,0.00,,,0.00,weatherlink.com 1.10,2013-01-14 03:48:00,
2013-01-13 23:03:00,62.4,58.0,30.00,NNE,28,0.0,5.0,86,0.00,,,0.00,weatherlink.com 1.10,2013-01-14 04:03:00,
2013-01-13 23:18:00,62.2,58.0,30.02,SSW,196,3.0,6.0,87,0.00,,,0.00,weatherlink.com 1.10,2013-01-14 04:18:00,
2013-01-13 23:33:00,62.5,58.0,30.03,South,169,2.0,5.0,86,0.00,,,0.00,weatherlink.com 1.10,2013-01-14 04:33:00,
2013-01-13 23:48:00,62.9,59.0,30.03,SSW,192,1.0,11.0,86,0.00,,,0.00,weatherlink.com 1.10,2013-01-14 04:48:00,